Time;durP1;ratioP1;P1;durP2;ratioP2;P2;SDS_P1;SDS_P2;PMS_P1;PMS_P2;Temp;Humidity;BMP_temperature;BMP_pressure;BME280_temperature;BME280_humidity;BME280_pressure;Samples;Min_cycle;Max_cycle;Signal;HPM_P1;HPM_P2
2021/11/06 00:01:50;;;;;;;5.30;2.90;;;;;;;7.11;84.00;102873.84;5134322;27;20412;-63
2021/11/06 00:04:15;;;;;;;7.00;2.63;;;;;;;7.10;83.63;102875.63;5134485;27;20067;-64
2021/11/06 00:06:44;;;;;;;4.00;2.50;;;;;;;7.11;84.04;102874.69;5134003;27;20623;-64
2021/11/06 00:09:10;;;;;;;6.13;2.57;;;;;;;7.11;83.96;102871.19;5134115;27;20023;-65
2021/11/06 00:11:35;;;;;;;4.47;2.38;;;;;;;7.11;83.93;102872.03;5133896;27;20031;-65
2021/11/06 00:14:00;;;;;;;4.53;2.60;;;;;;;7.14;83.82;102868.38;5133821;27;20038;-65
2021/11/06 00:16:26;;;;;;;3.87;2.40;;;;;;;7.13;83.62;102875.47;5133900;27;20023;-65
2021/11/06 00:18:51;;;;;;;6.63;2.93;;;;;;;7.10;83.88;102870.31;5133922;27;20470;-65
2021/11/06 00:21:16;;;;;;;5.43;2.80;;;;;;;7.12;83.53;102872.91;5133696;27;20696;-65
2021/11/06 00:23:41;;;;;;;6.10;2.97;;;;;;;7.16;83.39;102874.47;5133107;27;20011;-65
2021/11/06 00:26:07;;;;;;;6.63;3.10;;;;;;;7.17;83.60;102872.66;5133357;27;20039;-65
2021/11/06 00:28:32;;;;;;;4.73;2.63;;;;;;;7.16;83.47;102869.16;5133515;27;20049;-66
2021/11/06 00:30:57;;;;;;;7.37;2.50;;;;;;;7.17;83.56;102873.53;5133772;27;20478;-65
2021/11/06 00:33:23;;;;;;;4.73;2.60;;;;;;;7.18;83.57;102875.22;5133419;27;20515;-66
2021/11/06 00:35:48;;;;;;;4.67;2.80;;;;;;;7.19;83.65;102869.00;5133305;27;20048;-66
2021/11/06 00:38:13;;;;;;;5.97;2.83;;;;;;;7.18;83.56;102874.38;5133630;27;20106;-66
2021/11/06 00:40:39;;;;;;;5.23;2.73;;;;;;;7.21;83.76;102875.09;5133334;27;20019;-65
2021/11/06 00:43:04;;;;;;;5.80;3.00;;;;;;;7.22;83.73;102873.28;5133298;27;20027;-66
2021/11/06 00:45:31;;;;;;;6.50;2.67;;;;;;;7.23;83.40;102873.19;5133575;27;20406;-66
2021/11/06 00:47:56;;;;;;;6.60;3.57;;;;;;;7.24;83.73;102874.91;5133357;27;20056;-64
2021/11/06 00:50:22;;;;;;;4.77;3.43;;;;;;;7.26;83.92;102870.41;5115044;27;20428;-65
2021/11/06 00:52:49;;;;;;;6.38;3.30;;;;;;;7.26;83.82;102873.06;5132952;27;20424;-66
2021/11/06 00:55:17;;;;;;;9.07;3.87;;;;;;;7.29;83.89;102869.38;5133008;27;20038;-66
2021/11/06 00:57:42;;;;;;;4.57;3.00;;;;;;;7.28;84.31;102865.03;5133288;27;20177;-65
2021/11/06 01:00:11;;;;;;;3.65;3.20;;;;;;;7.29;84.15;102864.09;5133162;27;20462;-65
2021/11/06 01:02:38;;;;;;;6.90;3.53;;;;;;;7.28;84.38;102865.88;5132823;27;20027;-65
2021/11/06 01:05:07;;;;;;;6.43;4.60;;;;;;;7.28;84.04;102865.88;5133116;27;20034;-65
2021/11/06 01:07:34;;;;;;;9.60;4.07;;;;;;;7.31;84.18;102856.88;5132762;27;20048;-65
2021/11/06 01:10:00;;;;;;;10.10;4.50;;;;;;;7.29;84.58;102858.78;5132903;27;20596;-65
2021/11/06 01:12:26;;;;;;;10.93;5.10;;;;;;;7.29;84.45;102866.75;5132798;27;20027;-65
2021/11/06 01:14:51;;;;;;;10.17;4.37;;;;;;;7.30;84.62;102855.16;5132839;27;20055;-65
2021/11/06 01:17:16;;;;;;;6.23;4.17;;;;;;;7.28;84.47;102855.25;5132875;27;20493;-67
2021/11/06 01:19:42;;;;;;;7.60;4.40;;;;;;;7.27;84.20;102856.19;5132957;27;20046;-65
2021/11/06 01:22:07;;;;;;;6.50;3.87;;;;;;;7.26;84.47;102850.97;5132464;27;20019;-65
2021/11/06 01:27:04;;;;;;;6.67;3.93;;;;;;;7.28;84.31;102859.72;5083019;28;20044;-66
2021/11/06 01:29:29;;;;;;;10.70;4.07;;;;;;;7.30;84.55;102860.47;5091513;28;20036;-66
2021/11/06 01:31:55;;;;;;;6.38;3.92;;;;;;;7.29;84.19;102856.97;5091381;28;20020;-65
2021/11/06 01:34:20;;;;;;;7.83;3.97;;;;;;;7.29;84.45;102851.66;5091501;28;20050;-66
2021/11/06 01:36:45;;;;;;;5.40;3.77;;;;;;;7.28;84.56;102852.59;5090619;28;20382;-65
2021/11/06 01:39:11;;;;;;;6.90;4.17;;;;;;;7.28;85.06;102849.94;5091351;28;20070;-65
2021/11/06 01:41:36;;;;;;;5.83;4.10;;;;;;;7.30;84.33;102847.22;5091384;28;20048;-65
2021/11/06 01:44:02;;;;;;;7.27;4.33;;;;;;;7.29;84.70;102842.88;5073157;28;20059;-66
2021/11/06 01:46:29;;;;;;;8.23;4.03;;;;;;;7.27;84.86;102840.28;5091555;28;20775;-66
2021/11/06 01:48:56;;;;;;;6.80;4.40;;;;;;;7.25;84.63;102839.50;5091402;28;20028;-66
2021/11/06 01:51:21;;;;;;;;;;;;;;;7.22;84.55;102838.81;5091628;28;20456;-65
2021/11/06 01:53:48;;;;;;;6.20;4.00;;;;;;;7.23;85.04;102843.19;5090943;28;19912;-66
2021/11/06 01:56:13;;;;;;;8.53;4.80;;;;;;;7.23;85.14;102843.19;5090993;28;20123;-66
2021/11/06 01:58:42;;;;;;;8.33;4.93;;;;;;;7.23;84.70;102849.34;5091077;28;20067;-66
2021/11/06 02:01:08;;;;;;;8.63;4.40;;;;;;;7.25;85.00;102846.59;5091188;28;20369;-65
2021/11/06 02:03:34;;;;;;;7.30;4.28;;;;;;;7.24;85.02;102845.75;5091252;28;20106;-65
2021/11/06 02:05:59;;;;;;;;;;;;;;;7.24;84.97;102842.25;5073321;28;20020;-65
2021/11/06 02:08:26;;;;;;;6.20;4.27;;;;;;;7.24;84.96;102842.25;5090909;28;19958;-65
2021/11/06 02:10:51;;;;;;;10.33;4.43;;;;;;;7.25;85.04;102836.88;5090945;28;20065;-65
2021/11/06 02:13:17;;;;;;;6.87;4.07;;;;;;;7.25;84.98;102839.50;5090888;28;20035;-65
2021/11/06 02:15:43;;;;;;;6.38;4.60;;;;;;;7.24;85.22;102832.50;5056270;28;20602;-65
2021/11/06 02:18:08;;;;;;;11.27;4.97;;;;;;;7.25;85.10;102828.91;5091182;28;20024;-65
2021/11/06 02:20:34;;;;;;;7.60;5.10;;;;;;;7.25;85.30;102835.97;5091033;28;20422;-65
2021/11/06 02:22:59;;;;;;;14.00;5.10;;;;;;;7.25;85.17;102836.88;5090822;28;20081;-66
2021/11/06 02:25:25;;;;;;;7.63;4.90;;;;;;;7.26;85.41;102840.34;5090251;28;20391;-65
2021/11/06 02:27:52;;;;;;;6.60;4.43;;;;;;;7.27;85.29;102836.78;5090747;28;20020;-66
2021/11/06 02:30:18;;;;;;;9.37;5.60;;;;;;;7.29;85.65;102830.44;5090316;28;20027;-65
2021/11/06 02:32:46;;;;;;;9.70;5.63;;;;;;;7.30;85.62;102832.19;5090737;28;20028;-66
2021/11/06 02:35:12;;;;;;;7.23;5.20;;;;;;;7.31;85.51;102841.84;5090769;28;20036;-66
2021/11/06 02:37:37;;;;;;;8.77;5.55;;;;;;;7.30;85.63;102845.44;5090727;28;20028;-65
2021/11/06 02:40:04;;;;;;;9.10;4.97;;;;;;;7.30;85.73;102837.47;5090395;28;20020;-65
2021/11/06 02:42:30;;;;;;;11.67;5.90;;;;;;;7.30;85.93;102836.59;5090634;28;20070;-65
2021/11/06 02:44:56;;;;;;;15.47;5.83;;;;;;;7.31;85.70;102841.84;5090430;28;20484;-66
2021/11/06 02:47:22;;;;;;;7.90;5.85;;;;;;;7.34;85.79;102839.97;5092035;28;20536;-65
2021/11/06 02:49:47;;;;;;;9.63;6.05;;;;;;;7.34;86.27;102837.31;5094785;28;20109;-66
2021/11/06 02:52:13;;;;;;;8.23;5.80;;;;;;;7.34;86.09;102827.56;5094730;28;20023;-66
2021/11/06 02:54:38;;;;;;;11.60;5.87;;;;;;;7.34;86.44;102830.22;5094309;28;20074;-66
2021/11/06 02:57:04;;;;;;;11.63;5.67;;;;;;;7.36;86.64;102830.97;5094478;28;20081;-65
2021/11/06 02:59:29;;;;;;;11.48;6.45;;;;;;;7.38;86.72;102829.13;5094409;28;20475;-65
2021/11/06 03:01:55;;;;;;;9.10;5.60;;;;;;;7.38;86.72;102837.06;5094230;28;20038;-65
2021/11/06 03:04:20;;;;;;;7.80;5.70;;;;;;;7.40;86.91;102834.34;5094502;28;20035;-66
2021/11/06 03:06:46;;;;;;;8.40;6.05;;;;;;;7.38;87.11;102836.19;5094465;28;20028;-65
2021/11/06 03:09:12;;;;;;;9.05;5.28;;;;;;;7.38;87.08;102831.78;5094351;28;20719;-65
2021/11/06 03:11:38;;;;;;;;;;;;;;;7.37;87.45;102835.34;5094461;28;20604;-65
2021/11/06 03:14:07;;;;;;;9.93;6.17;;;;;;;7.36;87.92;102830.13;5094024;28;19912;-65
2021/11/06 03:16:36;;;;;;;12.43;6.40;;;;;;;7.38;88.01;102826.47;5075858;28;20083;-66
2021/11/06 03:19:01;;;;;;;11.33;6.50;;;;;;;7.36;88.29;102833.63;5094072;28;20477;-65
2021/11/06 03:21:28;;;;;;;11.40;6.33;;;;;;;7.38;87.96;102825.59;5094088;28;20024;-66
2021/11/06 03:23:53;;;;;;;;;;;;;;;7.41;88.01;102820.13;5094575;28;20081;-67
2021/11/06 03:26:18;;;;;;;12.87;6.80;;;;;;;7.38;88.14;102821.16;5093493;28;19924;-65
2021/11/06 03:28:43;;;;;;;14.13;7.60;;;;;;;7.36;88.29;102825.69;5094047;28;20028;-65
2021/11/06 03:31:09;;;;;;;11.23;6.57;;;;;;;7.38;88.17;102823.81;5093837;28;20039;-68
2021/11/06 03:33:34;;;;;;;10.53;6.40;;;;;;;7.39;88.17;102819.34;5093876;28;20070;-66
2021/11/06 03:36:00;;;;;;;9.50;6.70;;;;;;;7.40;88.54;102819.25;5093733;28;20035;-65
2021/11/06 03:38:25;;;;;;;13.30;7.78;;;;;;;7.40;88.58;102821.06;5093772;28;20084;-64
2021/11/06 03:40:51;;;;;;;10.75;6.75;;;;;;;7.43;88.52;102823.56;5093545;28;20051;-65
2021/11/06 03:43:16;;;;;;;10.17;6.73;;;;;;;7.44;88.46;102817.31;5093671;28;20028;-65
2021/11/06 03:45:43;;;;;;;10.95;7.43;;;;;;;7.44;88.68;102822.63;5075512;28;20403;-65
2021/11/06 03:48:08;;;;;;;;;;;;;;;7.46;88.66;102812.78;5093978;28;20416;-66
2021/11/06 03:50:34;;;;;;;11.03;8.00;;;;;;;7.44;88.70;102814.66;5093437;28;19927;-66
2021/11/06 03:52:59;;;;;;;9.48;6.85;;;;;;;7.47;88.96;102811.81;5093403;28;20103;-65
2021/11/06 03:55:25;;;;;;;11.52;7.40;;;;;;;7.50;89.01;102817.00;5093209;28;20036;-65
2021/11/06 03:57:50;;;;;;;14.80;7.33;;;;;;;7.51;88.99;102805.41;5093141;28;20024;-65
2021/11/06 04:00:17;;;;;;;11.77;7.20;;;;;;;7.51;89.19;102805.41;5092563;28;20032;-65
2021/11/06 04:02:44;;;;;;;11.93;7.80;;;;;;;7.51;89.29;102808.06;5093303;28;20043;-65
2021/11/06 04:05:09;;;;;;;;;;;;;;;7.51;89.30;102802.75;5093981;28;20387;-66
2021/11/06 04:07:35;;;;;;;12.80;7.23;;;;;;;7.53;89.16;102805.34;5093150;28;19920;-65
2021/11/06 04:10:00;;;;;;;11.70;7.33;;;;;;;7.52;89.20;102804.47;5093259;28;20099;-65
2021/11/06 04:12:26;;;;;;;12.53;7.60;;;;;;;7.53;89.26;102797.41;5092906;28;20020;-65
2021/11/06 04:14:51;;;;;;;11.43;8.10;;;;;;;7.52;89.28;102809.78;5093067;28;20331;-65
2021/11/06 04:17:17;;;;;;;12.38;7.93;;;;;;;7.56;89.38;102808.69;5092942;28;20036;-65
2021/11/06 04:19:42;;;;;;;9.87;7.50;;;;;;;7.61;89.16;102803.97;5093238;28;20427;-66
2021/11/06 04:22:07;;;;;;;13.90;7.33;;;;;;;7.59;89.28;102805.88;5092907;28;20059;-66
2021/11/06 04:24:33;;;;;;;17.00;8.23;;;;;;;7.62;89.38;102810.16;5092740;28;20032;-66
2021/11/06 04:26:59;;;;;;;13.98;8.30;;;;;;;7.64;89.37;102814.44;5092380;28;20036;-65
2021/11/06 04:29:24;;;;;;;14.13;7.82;;;;;;;7.64;89.33;102821.53;5092791;28;20028;-65
2021/11/06 04:31:49;;;;;;;15.50;8.70;;;;;;;7.66;89.37;102822.31;5092662;28;20048;-65
2021/11/06 04:34:16;;;;;;;10.57;7.70;;;;;;;7.68;89.36;102816.91;5092507;28;20062;-65
2021/11/06 04:36:41;;;;;;;12.70;8.47;;;;;;;7.68;89.22;102822.22;5092743;28;20028;-65
2021/11/06 04:39:07;;;;;;;14.68;8.13;;;;;;;7.68;89.02;102822.22;5092541;28;20024;-66
2021/11/06 04:41:33;;;;;;;11.85;8.02;;;;;;;7.71;88.95;102824.69;5092507;28;20034;-66
2021/11/06 04:43:58;;;;;;;12.07;8.23;;;;;;;7.69;88.95;102821.28;5092385;28;20477;-65
2021/11/06 04:46:24;;;;;;;15.75;9.52;;;;;;;7.69;89.07;102806.22;5074241;28;20478;-65
2021/11/06 04:48:49;;;;;;;10.70;7.70;;;;;;;7.72;89.03;102807.84;5092385;28;20089;-66
2021/11/06 04:51:14;;;;;;;12.17;7.70;;;;;;;7.71;88.78;102814.97;5092296;28;20016;-65
2021/11/06 04:53:40;;;;;;;11.73;8.07;;;;;;;7.70;88.89;102809.75;5092247;28;20038;-65
2021/11/06 04:56:05;;;;;;;14.23;8.07;;;;;;;7.71;88.76;102800.81;5092123;28;20042;-65
2021/11/06 04:58:31;;;;;;;12.57;8.45;;;;;;;7.73;88.77;102806.91;5092397;28;20055;-65
2021/11/06 05:00:56;;;;;;;12.57;7.90;;;;;;;7.71;88.67;102800.81;5092252;28;20024;-66
2021/11/06 05:03:21;;;;;;;11.27;7.88;;;;;;;7.74;88.87;102788.25;5092024;28;20322;-65
2021/11/06 05:05:47;;;;;;;15.67;9.27;;;;;;;7.70;88.61;102797.31;5091998;28;20024;-66
2021/11/06 05:08:12;;;;;;;12.87;8.27;;;;;;;7.71;88.52;102795.50;5092104;28;20056;-65
2021/11/06 05:10:39;;;;;;;11.83;8.20;;;;;;;7.70;88.88;102799.97;5091929;28;20274;-65
2021/11/06 05:13:04;;;;;;;16.10;8.57;;;;;;;7.72;88.31;102798.09;5091672;28;20349;-65
2021/11/06 05:15:30;;;;;;;13.70;9.47;;;;;;;7.70;88.36;102796.47;5091866;28;20020;-65
2021/11/06 05:17:55;;;;;;;14.48;9.15;;;;;;;7.70;88.52;102802.63;5073753;28;20059;-65
2021/11/06 05:20:22;;;;;;;12.80;8.63;;;;;;;7.69;88.31;102798.25;5091666;28;20487;-65
2021/11/06 05:22:48;;;;;;;13.57;8.45;;;;;;;7.71;88.04;102808.78;5091914;28;20110;-65
2021/11/06 05:25:14;;;;;;;14.20;8.48;;;;;;;7.69;87.96;102808.88;5069649;23;20057;-64
2021/11/06 05:27:39;;;;;;;13.60;8.65;;;;;;;7.70;87.98;102807.09;4969879;28;20076;-64
2021/11/06 05:30:07;;;;;;;13.93;8.88;;;;;;;7.69;87.73;102810.69;5036425;28;20062;-64
2021/11/06 05:32:34;;;;;;;14.43;8.53;;;;;;;7.65;87.78;102810.81;4969768;28;20098;-64
2021/11/06 05:35:00;;;;;;;14.33;8.93;;;;;;;7.66;87.68;102811.69;4969759;28;20034;-64
2021/11/06 05:37:26;;;;;;;12.97;8.30;;;;;;;7.62;88.00;102811.00;4970019;28;20025;-64
2021/11/06 05:39:51;;;;;;;12.43;7.70;;;;;;;7.63;88.01;102806.56;4969847;28;20278;-66
2021/11/06 05:42:17;;;;;;;11.43;8.40;;;;;;;7.62;87.73;102810.16;4969876;28;20420;-64
2021/11/06 05:44:42;;;;;;;12.18;9.13;;;;;;;7.61;87.79;102800.47;4969661;28;20462;-64
2021/11/06 05:47:07;;;;;;;13.70;9.13;;;;;;;7.58;87.93;102798.84;4969720;28;20382;-64
2021/11/06 05:49:33;;;;;;;15.47;10.10;;;;;;;7.59;88.09;102797.91;4969710;28;20027;-64
2021/11/06 05:51:58;;;;;;;15.17;8.90;;;;;;;7.59;87.71;102794.38;4969378;28;20029;-63
2021/11/06 05:54:23;;;;;;;12.87;8.67;;;;;;;7.61;87.79;102798.66;4969607;28;20038;-64
2021/11/06 05:56:49;;;;;;;15.03;8.27;;;;;;;7.60;87.68;102791.69;4969300;28;20290;-64
2021/11/06 05:59:14;;;;;;;15.50;9.03;;;;;;;7.61;88.05;102801.31;4969512;28;20105;-64
2021/11/06 06:01:40;;;;;;;12.27;8.13;;;;;;;7.64;87.79;102795.00;5036053;28;20145;-64
2021/11/06 06:04:05;;;;;;;13.03;8.93;;;;;;;7.64;87.79;102801.19;4969437;28;20026;-63
2021/11/06 06:06:31;;;;;;;13.82;8.88;;;;;;;7.66;87.91;102798.44;4969377;28;20491;-64
2021/11/06 06:08:56;;;;;;;10.53;8.70;;;;;;;7.67;87.95;102794.84;4969119;28;20033;-63
2021/11/06 06:11:21;;;;;;;14.03;8.57;;;;;;;7.66;87.97;102798.44;5035768;28;20031;-63
2021/11/06 06:13:47;;;;;;;13.60;8.43;;;;;;;7.67;87.73;102791.31;4969280;28;20038;-63
2021/11/06 06:16:12;;;;;;;14.13;8.60;;;;;;;7.68;87.95;102796.53;5035360;28;20301;-64
2021/11/06 06:18:37;;;;;;;15.13;8.93;;;;;;;7.71;87.93;102776.94;4969265;28;20030;-63
2021/11/06 06:21:03;;;;;;;15.00;8.60;;;;;;;7.69;87.80;102782.31;4969340;28;20042;-64
2021/11/06 06:23:28;;;;;;;11.20;8.40;;;;;;;7.70;87.79;102784.03;4968420;28;20046;-63
2021/11/06 06:25:54;;;;;;;14.70;9.17;;;;;;;7.72;87.56;102784.84;4968519;28;20054;-64
2021/11/06 06:28:19;;;;;;;14.55;8.90;;;;;;;7.74;87.52;102787.41;4968983;28;20031;-63
2021/11/06 06:30:44;;;;;;;12.87;9.60;;;;;;;7.74;87.32;102790.91;4968795;28;20052;-63
2021/11/06 06:33:10;;;;;;;13.70;8.57;;;;;;;7.72;87.81;102795.44;4969009;28;20494;-64
2021/11/06 06:35:35;;;;;;;14.23;9.37;;;;;;;7.71;87.67;102783.13;4968967;28;20501;-63
2021/11/06 06:38:01;;;;;;;12.32;9.07;;;;;;;7.71;87.57;102783.13;4968768;28;20034;-64
2021/11/06 06:40:27;;;;;;;12.20;8.52;;;;;;;7.72;87.52;102799.88;5035370;28;20026;-63
2021/11/06 06:42:53;;;;;;;12.52;8.45;;;;;;;7.70;87.52;102796.47;4968843;28;20053;-63
2021/11/06 06:45:19;;;;;;;13.00;9.10;;;;;;;7.66;87.55;102795.78;4968860;28;20076;-64
2021/11/06 06:47:44;;;;;;;15.30;9.65;;;;;;;7.65;87.78;102799.38;4968767;28;20023;-64
2021/11/06 06:50:10;;;;;;;16.20;8.53;;;;;;;7.62;87.98;102791.59;4968857;28;20038;-63
2021/11/06 06:52:35;;;;;;;11.70;8.80;;;;;;;7.59;87.92;102791.72;4968761;28;20279;-63
2021/11/06 06:55:02;;;;;;;13.65;8.23;;;;;;;7.63;88.13;102790.66;4968526;28;20038;-64
2021/11/06 06:57:27;;;;;;;;;;;;;;;7.65;88.00;102794.06;4969127;28;20469;-63
2021/11/06 06:59:52;;;;;;;11.93;8.40;;;;;;;7.65;87.90;102794.91;4968504;28;19914;-64
2021/11/06 07:02:18;;;;;;;11.07;8.17;;;;;;;7.67;87.89;102794.84;4968530;28;20079;-64
2021/11/06 07:04:43;;;;;;;12.07;8.80;;;;;;;7.70;87.81;102785.84;4968835;28;20030;-63
2021/11/06 07:07:10;;;;;;;12.00;7.77;;;;;;;7.75;87.65;102789.13;4968685;28;20529;-62
2021/11/06 07:09:35;;;;;;;;;;;;;;;7.76;87.58;102788.16;4968942;28;20030;-62
2021/11/06 07:12:00;;;;;;;11.87;7.80;;;;;;;7.77;87.63;102789.88;4968430;28;19937;-63
2021/11/06 07:14:26;;;;;;;11.63;8.27;;;;;;;7.80;87.61;102797.66;4968693;28;20035;-62
2021/11/06 07:16:52;;;;;;;10.05;7.93;;;;;;;7.85;87.62;102800.91;4968478;28;20019;-63
2021/11/06 07:19:18;;;;;;;12.90;8.43;;;;;;;7.86;87.27;102810.59;4968467;28;20027;-63
2021/11/06 07:21:44;;;;;;;13.15;8.25;;;;;;;7.89;87.18;102796.28;4968412;28;20031;-64
2021/11/06 07:24:09;;;;;;;10.27;7.93;;;;;;;7.87;86.97;102807.00;4968416;28;20031;-63
2021/11/06 07:26:34;;;;;;;13.40;7.70;;;;;;;7.89;86.95;102806.91;4968023;28;20050;-61
2021/11/06 07:29:00;;;;;;;10.05;7.63;;;;;;;7.92;86.97;102796.97;4968432;28;20433;-60
2021/11/06 07:31:25;;;;;;;10.55;6.70;;;;;;;7.97;86.73;102797.59;4968155;28;20371;-60
2021/11/06 07:33:54;;;;;;;8.82;7.15;;;;;;;8.01;86.73;102798.28;4970006;28;20473;-61
2021/11/06 07:36:19;;;;;;;9.13;7.20;;;;;;;8.07;86.36;102799.72;4971563;28;20031;-61
2021/11/06 07:38:45;;;;;;;14.05;8.02;;;;;;;8.08;85.94;102801.44;4971422;28;20099;-61
2021/11/06 07:41:11;;;;;;;9.03;7.40;;;;;;;8.08;85.85;102790.81;5038246;28;20034;-61
2021/11/06 07:43:37;;;;;;;10.33;7.43;;;;;;;8.12;85.41;102790.53;4971477;28;20139;-61
2021/11/06 07:46:04;;;;;;;9.00;6.75;;;;;;;8.19;85.36;102791.03;4970891;28;20031;-61
2021/11/06 07:48:30;;;;;;;15.83;7.33;;;;;;;8.23;85.23;102797.88;4971166;28;20436;-61
2021/11/06 07:50:55;;;;;;;8.32;6.75;;;;;;;8.24;84.94;102796.09;5038108;28;20019;-61
2021/11/06 07:53:21;;;;;;;11.52;8.10;;;;;;;8.22;84.68;102798.84;4971097;28;20426;-60
2021/11/06 07:55:47;;;;;;;9.80;7.00;;;;;;;8.22;84.82;102790.88;4970936;28;20093;-61
2021/11/06 07:58:14;;;;;;;11.47;7.77;;;;;;;8.22;84.58;102798.84;4971116;28;20152;-60
2021/11/06 08:00:40;;;;;;;12.87;7.77;;;;;;;8.16;84.75;102791.22;4971061;28;20437;-61
2021/11/06 08:03:06;;;;;;;10.10;6.90;;;;;;;8.15;85.00;102786.84;4970997;28;20023;-61
2021/11/06 08:05:31;;;;;;;12.40;6.93;;;;;;;8.14;84.80;102787.78;4971167;28;20027;-61
2021/11/06 08:07:56;;;;;;;11.93;7.30;;;;;;;8.15;84.83;102784.19;4970916;28;20039;-61
2021/11/06 08:10:22;;;;;;;10.33;6.47;;;;;;;8.16;85.05;102788.56;4970923;28;20502;-61
2021/11/06 08:12:47;;;;;;;13.75;6.75;;;;;;;8.19;84.86;102787.53;4971059;28;20019;-62
2021/11/06 08:15:14;;;;;;;10.53;6.90;;;;;;;8.23;84.85;102795.22;4971024;28;20105;-63
2021/11/06 08:17:40;;;;;;;8.20;6.43;;;;;;;8.28;84.53;102790.50;4970608;28;20027;-63
2021/11/06 08:20:06;;;;;;;7.00;5.68;;;;;;;8.31;84.92;102790.34;4970945;28;20096;-65
2021/11/06 08:22:32;;;;;;;;;;;;;;;8.36;84.27;102783.91;4971158;28;20490;-63
2021/11/06 08:24:57;;;;;;;8.43;6.43;;;;;;;8.39;83.79;102787.25;4970152;28;19933;-63
2021/11/06 08:27:23;;;;;;;9.43;6.17;;;;;;;8.39;83.79;102789.91;4970533;28;20023;-63
2021/11/06 08:29:48;;;;;;;7.93;5.87;;;;;;;8.43;83.57;102795.88;4970577;28;20059;-62
2021/11/06 08:32:14;;;;;;;7.57;5.33;;;;;;;8.46;83.60;102790.44;4970978;28;20336;-63
2021/11/06 08:34:40;;;;;;;8.90;5.27;;;;;;;8.42;83.15;102788.88;4970181;28;20330;-63
2021/11/06 08:37:06;;;;;;;11.02;5.25;;;;;;;8.55;83.30;102791.66;4970654;28;20072;-63
2021/11/06 08:39:31;;;;;;;9.25;5.28;;;;;;;8.61;83.46;102793.97;4970520;28;20023;-65
2021/11/06 08:41:57;;;;;;;9.67;5.37;;;;;;;8.72;83.11;102788.00;4970297;28;20478;-63
2021/11/06 08:44:23;;;;;;;7.10;5.70;;;;;;;8.79;82.56;102790.22;4970305;28;20110;-63
2021/11/06 08:46:52;;;;;;;10.17;5.60;;;;;;;8.94;82.33;102793.78;4970527;28;20435;-63
2021/11/06 08:49:18;;;;;;;11.13;5.55;;;;;;;9.05;81.69;102787.78;4970374;28;20274;-63
2021/11/06 08:51:48;;;;;;;8.85;5.50;;;;;;;9.12;81.44;102796.25;4970749;28;20026;-63
2021/11/06 08:54:16;;;;;;;7.57;5.00;;;;;;;9.13;81.04;102795.31;4970292;28;20062;-63
2021/11/06 08:56:42;;;;;;;7.03;4.85;;;;;;;9.16;80.95;102797.78;5036672;28;20127;-67
2021/11/06 08:59:07;;;;;;;;;;;;;;;9.18;80.83;102798.53;4970707;28;20034;-68
2021/11/06 09:01:33;;;;;;;9.05;4.45;;;;;;;9.19;80.89;102794.06;4970200;28;19937;-65
2021/11/06 09:03:59;;;;;;;7.70;4.50;;;;;;;9.23;80.94;102790.25;4969957;28;20023;-66
2021/11/06 09:06:25;;;;;;;7.25;4.60;;;;;;;9.23;81.25;102784.94;5036529;28;20019;-65
2021/11/06 09:08:50;;;;;;;;;;;;;;;9.22;80.64;102792.09;4970483;28;20026;-67
2021/11/06 09:11:17;;;;;;;9.13;5.00;;;;;;;9.20;80.77;102783.31;4969962;28;19921;-61
2021/11/06 09:13:50;;;;;;;9.60;4.65;;;;;;;9.19;80.77;102772.78;4970096;28;20027;-63
2021/11/06 09:16:16;;;;;;;9.63;4.10;;;;;;;9.14;80.61;102779.25;4970168;28;20109;-60
2021/11/06 09:18:43;;;;;;;6.65;4.15;;;;;;;9.16;80.83;102771.16;4969861;28;20031;-61
2021/11/06 09:21:10;;;;;;;;;;;;;;;9.13;80.94;102777.53;4970405;28;20027;-61
2021/11/06 09:23:36;;;;;;;8.10;4.60;;;;;;;9.16;80.98;102770.31;4969907;28;20356;-64
2021/11/06 09:26:02;;;;;;;6.50;4.43;;;;;;;9.19;81.03;102778.09;5033484;23;20131;-63
2021/11/06 09:28:28;;;;;;;5.32;3.85;;;;;;;9.27;80.81;102759.84;5051363;28;20614;-63
2021/11/06 09:30:55;;;;;;;6.88;4.18;;;;;;;9.36;80.05;102774.41;5033708;28;20024;-64
2021/11/06 09:33:21;;;;;;;5.93;4.15;;;;;;;9.39;79.89;102764.41;5051245;28;20106;-64
2021/11/06 09:35:47;;;;;;;9.65;4.55;;;;;;;9.44;79.69;102769.44;5050929;28;20075;-64
2021/11/06 09:38:13;;;;;;;9.65;4.50;;;;;;;9.44;78.91;102769.44;5051158;28;20037;-64
2021/11/06 09:40:38;;;;;;;7.33;4.40;;;;;;;9.50;79.46;102762.91;5051182;28;20108;-64
2021/11/06 09:43:03;;;;;;;7.40;4.20;;;;;;;9.54;79.26;102767.06;5051370;28;20604;-64
2021/11/06 09:45:29;;;;;;;5.97;4.40;;;;;;;9.54;78.74;102767.91;5051361;28;20103;-63
2021/11/06 09:47:55;;;;;;;6.15;4.70;;;;;;;9.46;79.12;102778.19;5051002;28;20033;-63
2021/11/06 09:50:22;;;;;;;8.98;4.22;;;;;;;9.44;79.12;102764.13;5033241;28;20037;-64
2021/11/06 09:52:48;;;;;;;9.98;4.80;;;;;;;9.35;78.94;102775.34;5050945;28;20111;-62
2021/11/06 09:55:20;;;;;;;11.60;4.75;;;;;;;9.34;79.17;102766.50;5050877;28;20037;-76
2021/11/06 09:57:46;;;;;;;6.32;4.95;;;;;;;9.31;79.42;102769.34;5050211;28;20163;-71
2021/11/06 10:00:14;;;;;;;6.82;4.65;;;;;;;9.28;79.76;102770.44;5050883;28;20041;-65
2021/11/06 10:02:41;;;;;;;6.85;4.40;;;;;;;9.35;79.52;102760.25;5050738;28;20519;-63
2021/11/06 10:05:07;;;;;;;5.28;4.30;;;;;;;9.40;79.07;102773.25;5050650;28;20025;-65
2021/11/06 10:07:33;;;;;;;5.97;4.88;;;;;;;9.37;79.04;102768.13;5050822;28;20096;-71
2021/11/06 10:10:05;;;;;;;6.63;4.17;;;;;;;9.37;79.55;102755.66;5050910;28;20064;-65
2021/11/06 10:12:47;;;;;;;7.35;5.15;;;;;;;9.33;78.95;102753.31;5050884;28;20028;-67
2021/11/06 10:15:14;;;;;;;7.35;5.43;;;;;;;9.23;79.59;102758.34;5050716;28;20029;-67
2021/11/06 10:17:39;;;;;;;;;;;;;;;9.16;79.56;102755.22;5051031;28;20024;-66
2021/11/06 10:20:24;;;;;;;11.70;5.15;;;;;;;9.09;80.00;102759.22;5050367;28;19942;-68
2021/11/06 10:22:52;;;;;;;7.05;5.10;;;;;;;9.08;80.14;102760.16;5050432;28;20107;-66
2021/11/06 10:25:21;;;;;;;7.57;5.07;;;;;;;9.07;80.32;102758.44;5054079;28;20048;-66
2021/11/06 10:28:03;;;;;;;6.97;4.90;;;;;;;9.11;80.07;102755.50;5070400;28;20538;-72
2021/11/06 10:30:37;;;;;;;8.70;5.28;;;;;;;9.16;80.08;102757.88;5070418;28;20025;-67
2021/11/06 10:33:10;;;;;;;6.50;5.03;;;;;;;9.14;80.14;102757.13;5052181;28;20082;-74
2021/11/06 10:35:44;;;;;;;7.43;4.95;;;;;;;9.08;79.81;102763.66;5070322;28;20033;-76
2021/11/06 10:38:14;;;;;;;10.32;5.30;;;;;;;9.10;79.99;102748.47;5070635;28;20099;-69
2021/11/06 10:40:45;;;;;;;6.72;4.93;;;;;;;9.10;79.87;102745.81;5070452;28;20428;-73
2021/11/06 10:43:13;;;;;;;8.27;5.00;;;;;;;9.20;80.54;102755.88;5052454;28;20372;-71
2021/11/06 10:45:53;;;;;;;7.70;4.75;;;;;;;9.28;79.74;102746.47;5070386;28;20025;-72
2021/11/06 10:48:23;;;;;;;7.07;4.78;;;;;;;9.36;79.63;102753.09;5070111;28;20052;-66
2021/11/06 10:51:04;;;;;;;7.70;4.90;;;;;;;9.51;78.89;102752.16;5070371;28;20487;-65
2021/11/06 10:53:34;;;;;;;6.68;4.50;;;;;;;9.66;78.86;102742.31;5070198;28;20032;-71
2021/11/06 10:56:02;;;;;;;6.90;4.55;;;;;;;9.84;78.10;102740.28;5069983;28;20048;-67
2021/11/06 10:58:31;;;;;;;7.43;4.97;;;;;;;10.07;77.72;102738.78;5070128;28;20630;-65
2021/11/06 11:00:59;;;;;;;5.18;4.13;;;;;;;10.32;76.96;102728.25;4968534;28;20379;-73
2021/11/06 11:03:27;;;;;;;7.55;4.45;;;;;;;10.37;75.92;102732.34;5070095;28;20486;-66
2021/11/06 11:05:55;;;;;;;5.72;5.10;;;;;;;10.59;76.17;102729.06;5070121;28;20033;-73
2021/11/06 11:08:20;;;;;;;10.57;4.93;;;;;;;10.77;75.44;102720.78;5071436;28;20025;-69
2021/11/06 11:10:46;;;;;;;6.83;4.20;;;;;;;10.90;75.10;102724.28;5073922;28;20102;-67
2021/11/06 11:13:19;;;;;;;6.95;5.03;;;;;;;11.00;74.76;102718.31;5073913;28;20294;-65
2021/11/06 11:16:11;;;;;;;7.45;4.28;;;;;;;11.22;75.40;102714.97;5074216;28;20017;-65
2021/11/06 11:18:39;;;;;;;7.00;4.97;;;;;;;11.41;74.22;102714.47;5073276;28;20079;-64
2021/11/06 11:21:21;;;;;;;5.97;4.70;;;;;;;11.44;73.31;102698.25;5073599;28;20060;-64
2021/11/06 11:23:50;;;;;;;7.30;4.18;;;;;;;11.47;73.21;102687.34;5073343;28;20383;-76
2021/11/06 11:26:19;;;;;;;6.50;4.78;;;;;;;11.37;73.12;102683.66;5073403;28;20043;-72
2021/11/06 11:28:46;;;;;;;6.97;5.05;;;;;;;11.35;73.83;102685.59;5073738;28;20021;-71
2021/11/06 11:31:12;;;;;;;9.93;5.28;;;;;;;11.11;73.58;102686.41;5073773;28;20036;-67